< < Back
Terminal Aerodrome Forecast


Current Version              Previous Versions:   1  2  3  4  5  6  7  8  9  

Terminal Aerodrome Forecast

949
FTUS42 KJAX 192300
TAFJAX
TAF
KJAX 192339Z 2000/2024 36012KT 2SM -DZ OVC008
      TEMPO 2000/2004 P6SM
     FM201300 01015G23KT P6SM BKN015=

Latest METAR

955
SAUS80 KWBC 200300 CCA
MTRJAX
METAR KJAX 200256Z 33010KT 2 1/2SM -RA BR OVC005 16/16 A3002 RMK AO2
RAB11 SLP166 P0004 60007 T01560156 53024 $


USA.gov is the U.S. government's official web portal to all federal, state and local government web resources and services.